sensor_id;sensor_type;location;lat;lon;timestamp;P1;durP1;ratioP1;P2;durP2;ratioP2
66663;SDS011;59683;51.428;-1.994;2024-03-02T09:43:39;3.63;;;1.83;;
66663;SDS011;59683;51.428;-1.994;2024-03-02T09:46:05;4.45;;;1.95;;
66663;SDS011;59683;51.428;-1.994;2024-03-02T09:48:33;6.47;;;2.28;;
66663;SDS011;59683;51.428;-1.994;2024-03-02T09:50:59;4.73;;;2.20;;
66663;SDS011;59683;51.428;-1.994;2024-03-02T09:53:28;3.47;;;1.60;;
66663;SDS011;59683;51.428;-1.994;2024-03-02T09:55:56;4.70;;;1.80;;
66663;SDS011;59683;51.428;-1.994;2024-03-02T09:58:22;6.60;;;2.10;;
66663;SDS011;59683;51.428;-1.994;2024-03-02T10:00:47;4.13;;;2.07;;
66663;SDS011;59683;51.428;-1.994;2024-03-02T10:03:14;4.78;;;2.20;;
66663;SDS011;59683;51.428;-1.994;2024-03-02T10:05:40;4.27;;;1.80;;
66663;SDS011;59683;51.428;-1.994;2024-03-02T10:08:05;3.30;;;1.70;;
66663;SDS011;59683;51.428;-1.994;2024-03-02T10:10:41;4.18;;;2.38;;
66663;SDS011;59683;51.428;-1.994;2024-03-02T10:13:10;4.07;;;1.65;;
66663;SDS011;59683;51.428;-1.994;2024-03-02T10:15:37;3.72;;;1.90;;
66663;SDS011;59683;51.428;-1.994;2024-03-02T10:18:04;4.95;;;2.33;;
66663;SDS011;59683;51.428;-1.994;2024-03-02T10:20:29;6.60;;;2.83;;
66663;SDS011;59683;51.428;-1.994;2024-03-02T10:22:55;4.37;;;2.20;;
66663;SDS011;59683;51.428;-1.994;2024-03-02T10:25:34;3.38;;;1.83;;
66663;SDS011;59683;51.428;-1.994;2024-03-02T10:27:59;3.20;;;1.90;;
66663;SDS011;59683;51.428;-1.994;2024-03-02T10:30:26;3.80;;;2.00;;
66663;SDS011;59683;51.428;-1.994;2024-03-02T10:32:55;4.63;;;2.00;;
66663;SDS011;59683;51.428;-1.994;2024-03-02T10:35:21;6.07;;;2.50;;
66663;SDS011;59683;51.428;-1.994;2024-03-02T10:37:48;4.75;;;2.42;;
66663;SDS011;59683;51.428;-1.994;2024-03-02T10:40:14;5.65;;;2.45;;
66663;SDS011;59683;51.428;-1.994;2024-03-02T10:42:39;5.57;;;2.67;;
66663;SDS011;59683;51.428;-1.994;2024-03-02T10:45:07;3.85;;;2.22;;
66663;SDS011;59683;51.428;-1.994;2024-03-02T10:47:36;4.70;;;2.60;;
66663;SDS011;59683;51.428;-1.994;2024-03-02T10:50:03;4.70;;;2.58;;
66663;SDS011;59683;51.428;-1.994;2024-03-02T10:52:39;5.40;;;3.33;;
66663;SDS011;59683;51.428;-1.994;2024-03-02T10:55:05;4.13;;;2.33;;
66663;SDS011;59683;51.428;-1.994;2024-03-02T10:57:51;4.53;;;2.22;;
66663;SDS011;59683;51.428;-1.994;2024-03-02T11:00:21;3.42;;;1.73;;
66663;SDS011;59683;51.428;-1.994;2024-03-02T11:03:02;3.63;;;1.92;;
66663;SDS011;59683;51.428;-1.994;2024-03-02T11:05:35;3.95;;;2.15;;
66663;SDS011;59683;51.428;-1.994;2024-03-02T11:08:07;3.83;;;1.88;;
66663;SDS011;59683;51.428;-1.994;2024-03-02T11:10:37;5.32;;;2.20;;
66663;SDS011;59683;51.428;-1.994;2024-03-02T11:13:08;4.60;;;2.97;;
66663;SDS011;59683;51.428;-1.994;2024-03-02T11:15:34;5.05;;;3.00;;
66663;SDS011;59683;51.428;-1.994;2024-03-02T11:18:02;3.60;;;2.25;;
66663;SDS011;59683;51.428;-1.994;2024-03-02T11:20:31;2.70;;;1.65;;
66663;SDS011;59683;51.428;-1.994;2024-03-02T11:22:57;2.30;;;1.40;;
66663;SDS011;59683;51.428;-1.994;2024-03-02T11:25:23;3.50;;;1.90;;
66663;SDS011;59683;51.428;-1.994;2024-03-02T11:33:03;2.63;;;1.20;;
66663;SDS011;59683;51.428;-1.994;2024-03-02T11:35:42;2.58;;;1.67;;
66663;SDS011;59683;51.428;-1.994;2024-03-02T11:38:11;2.25;;;1.20;;
66663;SDS011;59683;51.428;-1.994;2024-03-02T11:40:38;3.40;;;1.73;;
66663;SDS011;59683;51.428;-1.994;2024-03-02T11:43:04;2.33;;;1.15;;
66663;SDS011;59683;51.428;-1.994;2024-03-02T11:45:31;2.42;;;1.00;;
66663;SDS011;59683;51.428;-1.994;2024-03-02T11:47:58;1.67;;;0.70;;
66663;SDS011;59683;51.428;-1.994;2024-03-02T11:50:34;2.30;;;0.70;;
66663;SDS011;59683;51.428;-1.994;2024-03-02T11:53:02;1.10;;;0.70;;
66663;SDS011;59683;51.428;-1.994;2024-03-02T11:55:31;1.47;;;0.70;;
66663;SDS011;59683;51.428;-1.994;2024-03-02T11:58:03;0.83;;;0.60;;
66663;SDS011;59683;51.428;-1.994;2024-03-02T12:00:29;1.23;;;0.63;;
66663;SDS011;59683;51.428;-1.994;2024-03-02T12:02:59;1.23;;;0.70;;
66663;SDS011;59683;51.428;-1.994;2024-03-02T12:07:55;1.15;;;0.50;;
66663;SDS011;59683;51.428;-1.994;2024-03-02T12:10:25;1.43;;;0.70;;
66663;SDS011;59683;51.428;-1.994;2024-03-02T12:12:57;1.48;;;0.73;;
66663;SDS011;59683;51.428;-1.994;2024-03-02T12:15:24;2.47;;;1.10;;
66663;SDS011;59683;51.428;-1.994;2024-03-02T12:17:54;1.33;;;0.68;;
66663;SDS011;59683;51.428;-1.994;2024-03-02T12:20:21;1.83;;;0.63;;
66663;SDS011;59683;51.428;-1.994;2024-03-02T12:22:48;1.93;;;0.70;;
66663;SDS011;59683;51.428;-1.994;2024-03-02T12:25:15;1.67;;;0.60;;
66663;SDS011;59683;51.428;-1.994;2024-03-02T12:27:41;1.80;;;0.77;;
66663;SDS011;59683;51.428;-1.994;2024-03-02T12:30:06;1.53;;;0.70;;
66663;SDS011;59683;51.428;-1.994;2024-03-02T12:32:35;1.87;;;0.80;;
66663;SDS011;59683;51.428;-1.994;2024-03-02T12:35:03;2.60;;;0.90;;
66663;SDS011;59683;51.428;-1.994;2024-03-02T12:37:29;3.07;;;1.00;;
66663;SDS011;59683;51.428;-1.994;2024-03-02T12:39:55;1.50;;;0.80;;
66663;SDS011;59683;51.428;-1.994;2024-03-02T12:42:20;2.33;;;1.10;;
66663;SDS011;59683;51.428;-1.994;2024-03-02T12:44:46;3.33;;;1.40;;
66663;SDS011;59683;51.428;-1.994;2024-03-02T12:47:11;2.87;;;1.40;;
66663;SDS011;59683;51.428;-1.994;2024-03-02T12:49:39;1.75;;;1.00;;
66663;SDS011;59683;51.428;-1.994;2024-03-02T12:52:05;3.38;;;1.20;;
66663;SDS011;59683;51.428;-1.994;2024-03-02T12:54:30;2.53;;;1.27;;
66663;SDS011;59683;51.428;-1.994;2024-03-02T12:56:57;1.95;;;1.17;;
66663;SDS011;59683;51.428;-1.994;2024-03-02T12:59:23;3.50;;;1.47;;
66663;SDS011;59683;51.428;-1.994;2024-03-02T13:01:55;3.25;;;1.30;;
66663;SDS011;59683;51.428;-1.994;2024-03-02T13:04:24;3.90;;;1.60;;
66663;SDS011;59683;51.428;-1.994;2024-03-02T13:06:51;3.15;;;1.70;;
66663;SDS011;59683;51.428;-1.994;2024-03-02T13:09:17;5.60;;;1.80;;
66663;SDS011;59683;51.428;-1.994;2024-03-02T13:11:43;3.50;;;1.40;;
66663;SDS011;59683;51.428;-1.994;2024-03-02T13:14:10;3.40;;;1.70;;
66663;SDS011;59683;51.428;-1.994;2024-03-02T13:16:39;2.50;;;1.30;;
66663;SDS011;59683;51.428;-1.994;2024-03-02T13:19:08;2.80;;;1.10;;
66663;SDS011;59683;51.428;-1.994;2024-03-02T13:21:35;2.33;;;1.25;;
66663;SDS011;59683;51.428;-1.994;2024-03-02T13:24:00;2.67;;;1.63;;
66663;SDS011;59683;51.428;-1.994;2024-03-02T13:26:26;2.10;;;1.50;;
66663;SDS011;59683;51.428;-1.994;2024-03-02T13:28:52;4.88;;;1.83;;
66663;SDS011;59683;51.428;-1.994;2024-03-02T13:31:18;3.23;;;1.60;;
66663;SDS011;59683;51.428;-1.994;2024-03-02T13:33:43;2.30;;;0.90;;
66663;SDS011;59683;51.428;-1.994;2024-03-02T13:36:09;2.67;;;1.20;;
66663;SDS011;59683;51.428;-1.994;2024-03-02T13:38:34;2.53;;;1.33;;
66663;SDS011;59683;51.428;-1.994;2024-03-02T13:41:01;2.75;;;1.40;;
66663;SDS011;59683;51.428;-1.994;2024-03-02T13:43:26;2.83;;;1.33;;
66663;SDS011;59683;51.428;-1.994;2024-03-02T13:45:52;4.13;;;1.30;;
66663;SDS011;59683;51.428;-1.994;2024-03-02T13:48:18;1.85;;;1.40;;
66663;SDS011;59683;51.428;-1.994;2024-03-02T13:50:44;4.05;;;1.23;;
66663;SDS011;59683;51.428;-1.994;2024-03-02T13:53:10;2.67;;;1.20;;
66663;SDS011;59683;51.428;-1.994;2024-03-02T13:55:37;2.93;;;1.50;;
66663;SDS011;59683;51.428;-1.994;2024-03-02T13:58:03;2.25;;;1.27;;
66663;SDS011;59683;51.428;-1.994;2024-03-02T14:00:29;2.45;;;1.40;;
66663;SDS011;59683;51.428;-1.994;2024-03-02T14:02:55;2.87;;;1.70;;
66663;SDS011;59683;51.428;-1.994;2024-03-02T14:05:20;3.47;;;1.90;;
66663;SDS011;59683;51.428;-1.994;2024-03-02T14:07:46;3.37;;;1.80;;
66663;SDS011;59683;51.428;-1.994;2024-03-02T14:10:11;5.63;;;1.93;;
66663;SDS011;59683;51.428;-1.994;2024-03-02T14:12:37;5.63;;;2.07;;
66663;SDS011;59683;51.428;-1.994;2024-03-02T14:15:02;3.40;;;1.73;;
66663;SDS011;59683;51.428;-1.994;2024-03-02T14:17:29;4.38;;;1.80;;
66663;SDS011;59683;51.428;-1.994;2024-03-02T14:19:56;3.50;;;1.75;;
66663;SDS011;59683;51.428;-1.994;2024-03-02T14:22:23;3.30;;;1.90;;
66663;SDS011;59683;51.428;-1.994;2024-03-02T14:24:49;2.10;;;1.27;;
66663;SDS011;59683;51.428;-1.994;2024-03-02T14:27:14;1.80;;;1.10;;
66663;SDS011;59683;51.428;-1.994;2024-03-02T14:29:43;2.47;;;1.40;;
66663;SDS011;59683;51.428;-1.994;2024-03-02T14:32:09;2.50;;;1.23;;
66663;SDS011;59683;51.428;-1.994;2024-03-02T14:34:34;2.97;;;1.30;;
66663;SDS011;59683;51.428;-1.994;2024-03-02T14:37:00;4.53;;;1.33;;
66663;SDS011;59683;51.428;-1.994;2024-03-02T14:39:26;2.37;;;1.10;;
66663;SDS011;59683;51.428;-1.994;2024-03-02T14:41:52;2.80;;;1.38;;
66663;SDS011;59683;51.428;-1.994;2024-03-02T14:44:17;2.70;;;1.30;;
66663;SDS011;59683;51.428;-1.994;2024-03-02T14:46:43;3.20;;;1.90;;
66663;SDS011;59683;51.428;-1.994;2024-03-02T14:49:11;2.58;;;1.20;;
66663;SDS011;59683;51.428;-1.994;2024-03-02T14:51:37;1.40;;;0.90;;
66663;SDS011;59683;51.428;-1.994;2024-03-02T14:54:02;2.33;;;0.90;;
66663;SDS011;59683;51.428;-1.994;2024-03-02T14:56:28;1.50;;;1.07;;
66663;SDS011;59683;51.428;-1.994;2024-03-02T14:58:53;2.00;;;0.80;;
66663;SDS011;59683;51.428;-1.994;2024-03-02T15:01:19;1.57;;;0.80;;
66663;SDS011;59683;51.428;-1.994;2024-03-02T15:03:47;2.67;;;1.00;;
66663;SDS011;59683;51.428;-1.994;2024-03-02T15:06:14;2.27;;;1.10;;
66663;SDS011;59683;51.428;-1.994;2024-03-02T15:08:39;1.63;;;1.00;;
66663;SDS011;59683;51.428;-1.994;2024-03-02T15:11:06;1.80;;;0.85;;
66663;SDS011;59683;51.428;-1.994;2024-03-02T15:13:32;1.37;;;0.80;;
66663;SDS011;59683;51.428;-1.994;2024-03-02T15:15:58;1.43;;;0.70;;
66663;SDS011;59683;51.428;-1.994;2024-03-02T15:18:24;1.50;;;0.80;;
66663;SDS011;59683;51.428;-1.994;2024-03-02T15:20:49;2.33;;;0.97;;
66663;SDS011;59683;51.428;-1.994;2024-03-02T15:23:15;2.80;;;0.90;;
66663;SDS011;59683;51.428;-1.994;2024-03-02T15:25:40;1.63;;;1.03;;
66663;SDS011;59683;51.428;-1.994;2024-03-02T15:28:06;2.30;;;1.20;;
66663;SDS011;59683;51.428;-1.994;2024-03-02T15:30:31;2.70;;;1.30;;
66663;SDS011;59683;51.428;-1.994;2024-03-02T15:32:57;2.63;;;1.10;;
66663;SDS011;59683;51.428;-1.994;2024-03-02T15:35:22;1.23;;;0.73;;
66663;SDS011;59683;51.428;-1.994;2024-03-02T15:37:47;1.57;;;0.90;;
66663;SDS011;59683;51.428;-1.994;2024-03-02T15:40:13;3.20;;;1.30;;
66663;SDS011;59683;51.428;-1.994;2024-03-02T15:42:38;2.23;;;1.10;;
66663;SDS011;59683;51.428;-1.994;2024-03-02T15:45:04;1.60;;;0.90;;
66663;SDS011;59683;51.428;-1.994;2024-03-02T15:47:29;1.77;;;0.80;;
66663;SDS011;59683;51.428;-1.994;2024-03-02T15:49:55;3.87;;;0.80;;
66663;SDS011;59683;51.428;-1.994;2024-03-02T15:52:21;1.63;;;0.77;;
66663;SDS011;59683;51.428;-1.994;2024-03-02T15:54:49;1.40;;;0.57;;
66663;SDS011;59683;51.428;-1.994;2024-03-02T15:57:15;1.02;;;0.50;;
66663;SDS011;59683;51.428;-1.994;2024-03-02T15:59:42;1.63;;;0.30;;
66663;SDS011;59683;51.428;-1.994;2024-03-02T16:02:08;1.00;;;0.50;;
66663;SDS011;59683;51.428;-1.994;2024-03-02T16:04:33;2.60;;;0.70;;
66663;SDS011;59683;51.428;-1.994;2024-03-02T16:06:58;1.30;;;0.60;;
66663;SDS011;59683;51.428;-1.994;2024-03-02T16:09:24;1.00;;;0.47;;
66663;SDS011;59683;51.428;-1.994;2024-03-02T16:11:49;1.23;;;0.60;;
66663;SDS011;59683;51.428;-1.994;2024-03-02T16:14:15;2.00;;;0.67;;
66663;SDS011;59683;51.428;-1.994;2024-03-02T16:16:41;1.52;;;0.50;;
66663;SDS011;59683;51.428;-1.994;2024-03-02T16:19:06;0.90;;;0.50;;
66663;SDS011;59683;51.428;-1.994;2024-03-02T16:21:32;1.47;;;0.80;;
66663;SDS011;59683;51.428;-1.994;2024-03-02T16:23:57;2.17;;;0.80;;
66663;SDS011;59683;51.428;-1.994;2024-03-02T16:26:23;3.40;;;1.03;;
66663;SDS011;59683;51.428;-1.994;2024-03-02T16:28:49;4.93;;;1.50;;
66663;SDS011;59683;51.428;-1.994;2024-03-02T16:31:15;4.63;;;1.47;;
66663;SDS011;59683;51.428;-1.994;2024-03-02T16:33:43;2.20;;;0.90;;
66663;SDS011;59683;51.428;-1.994;2024-03-02T16:36:09;2.88;;;1.10;;
66663;SDS011;59683;51.428;-1.994;2024-03-02T16:38:35;3.65;;;1.70;;
66663;SDS011;59683;51.428;-1.994;2024-03-02T16:41:02;4.78;;;1.95;;
66663;SDS011;59683;51.428;-1.994;2024-03-02T16:43:27;1.73;;;1.00;;
66663;SDS011;59683;51.428;-1.994;2024-03-02T16:45:53;1.87;;;0.90;;
66663;SDS011;59683;51.428;-1.994;2024-03-02T16:48:18;2.63;;;0.93;;
66663;SDS011;59683;51.428;-1.994;2024-03-02T16:50:44;1.73;;;0.70;;
66663;SDS011;59683;51.428;-1.994;2024-03-02T16:53:09;3.23;;;1.27;;
66663;SDS011;59683;51.428;-1.994;2024-03-02T16:55:35;3.00;;;1.27;;
66663;SDS011;59683;51.428;-1.994;2024-03-02T16:58:00;2.73;;;0.90;;
66663;SDS011;59683;51.428;-1.994;2024-03-02T17:00:25;4.00;;;1.57;;
66663;SDS011;59683;51.428;-1.994;2024-03-02T17:02:51;4.10;;;1.50;;
66663;SDS011;59683;51.428;-1.994;2024-03-02T17:05:17;2.15;;;1.23;;
66663;SDS011;59683;51.428;-1.994;2024-03-02T17:07:46;2.65;;;1.38;;
66663;SDS011;59683;51.428;-1.994;2024-03-02T17:10:11;3.53;;;1.40;;
66663;SDS011;59683;51.428;-1.994;2024-03-02T17:12:37;4.23;;;1.93;;
66663;SDS011;59683;51.428;-1.994;2024-03-02T17:15:03;3.20;;;1.60;;
66663;SDS011;59683;51.428;-1.994;2024-03-02T17:17:30;3.38;;;1.48;;
66663;SDS011;59683;51.428;-1.994;2024-03-02T17:19:56;3.83;;;1.53;;
66663;SDS011;59683;51.428;-1.994;2024-03-02T17:22:21;4.40;;;1.87;;
66663;SDS011;59683;51.428;-1.994;2024-03-02T17:24:48;2.75;;;1.50;;
66663;SDS011;59683;51.428;-1.994;2024-03-02T17:27:14;4.27;;;1.67;;
66663;SDS011;59683;51.428;-1.994;2024-03-02T17:29:39;6.20;;;2.30;;
66663;SDS011;59683;51.428;-1.994;2024-03-02T17:32:05;5.20;;;2.60;;
66663;SDS011;59683;51.428;-1.994;2024-03-02T17:34:30;5.47;;;2.33;;
66663;SDS011;59683;51.428;-1.994;2024-03-02T17:36:55;7.07;;;4.07;;
66663;SDS011;59683;51.428;-1.994;2024-03-02T17:39:21;8.13;;;3.83;;
66663;SDS011;59683;51.428;-1.994;2024-03-02T17:41:46;13.23;;;5.47;;
66663;SDS011;59683;51.428;-1.994;2024-03-02T17:44:12;6.97;;;3.40;;
66663;SDS011;59683;51.428;-1.994;2024-03-02T17:46:37;5.60;;;3.63;;
66663;SDS011;59683;51.428;-1.994;2024-03-02T17:49:02;6.70;;;4.00;;
66663;SDS011;59683;51.428;-1.994;2024-03-02T17:51:28;9.00;;;3.87;;
66663;SDS011;59683;51.428;-1.994;2024-03-02T17:53:53;9.27;;;3.57;;
66663;SDS011;59683;51.428;-1.994;2024-03-02T17:56:18;6.37;;;3.57;;
66663;SDS011;59683;51.428;-1.994;2024-03-02T17:58:44;5.03;;;3.07;;
66663;SDS011;59683;51.428;-1.994;2024-03-02T18:01:09;7.43;;;3.40;;
66663;SDS011;59683;51.428;-1.994;2024-03-02T18:03:37;8.07;;;3.03;;
66663;SDS011;59683;51.428;-1.994;2024-03-02T18:06:03;22.15;;;15.73;;
66663;SDS011;59683;51.428;-1.994;2024-03-02T18:08:29;11.85;;;7.82;;
66663;SDS011;59683;51.428;-1.994;2024-03-02T18:10:54;14.47;;;7.73;;
66663;SDS011;59683;51.428;-1.994;2024-03-02T18:13:20;25.13;;;11.23;;
66663;SDS011;59683;51.428;-1.994;2024-03-02T18:15:46;48.63;;;20.93;;
66663;SDS011;59683;51.428;-1.994;2024-03-02T18:18:11;31.73;;;14.80;;
66663;SDS011;59683;51.428;-1.994;2024-03-02T18:20:37;22.10;;;11.23;;
66663;SDS011;59683;51.428;-1.994;2024-03-02T18:23:03;9.65;;;6.38;;
66663;SDS011;59683;51.428;-1.994;2024-03-02T18:25:29;13.05;;;5.32;;
66663;SDS011;59683;51.428;-1.994;2024-03-02T18:27:55;10.73;;;7.60;;
66663;SDS011;59683;51.428;-1.994;2024-03-02T18:30:21;12.00;;;8.57;;
66663;SDS011;59683;51.428;-1.994;2024-03-02T18:32:46;18.60;;;8.63;;
66663;SDS011;59683;51.428;-1.994;2024-03-02T18:35:12;10.97;;;6.70;;
66663;SDS011;59683;51.428;-1.994;2024-03-02T18:37:37;8.17;;;5.00;;
66663;SDS011;59683;51.428;-1.994;2024-03-02T18:40:03;15.37;;;9.07;;
66663;SDS011;59683;51.428;-1.994;2024-03-02T18:42:30;12.38;;;8.10;;
66663;SDS011;59683;51.428;-1.994;2024-03-02T18:44:56;15.05;;;9.38;;
66663;SDS011;59683;51.428;-1.994;2024-03-02T18:47:22;16.90;;;10.23;;
66663;SDS011;59683;51.428;-1.994;2024-03-02T18:49:47;16.13;;;8.27;;
66663;SDS011;59683;51.428;-1.994;2024-03-02T18:52:13;13.53;;;8.63;;
66663;SDS011;59683;51.428;-1.994;2024-03-02T18:54:40;17.40;;;8.93;;
66663;SDS011;59683;51.428;-1.994;2024-03-02T18:57:06;15.20;;;7.68;;
66663;SDS011;59683;51.428;-1.994;2024-03-02T18:59:31;16.23;;;7.47;;
66663;SDS011;59683;51.428;-1.994;2024-03-02T19:01:56;17.63;;;8.47;;
66663;SDS011;59683;51.428;-1.994;2024-03-02T19:04:22;15.07;;;6.13;;
66663;SDS011;59683;51.428;-1.994;2024-03-02T19:06:47;12.70;;;5.67;;
66663;SDS011;59683;51.428;-1.994;2024-03-02T19:09:13;10.73;;;5.90;;
66663;SDS011;59683;51.428;-1.994;2024-03-02T19:11:38;15.50;;;8.50;;
66663;SDS011;59683;51.428;-1.994;2024-03-02T19:14:03;14.73;;;7.93;;
66663;SDS011;59683;51.428;-1.994;2024-03-02T19:16:29;12.50;;;6.03;;
66663;SDS011;59683;51.428;-1.994;2024-03-02T19:18:55;12.67;;;5.60;;
66663;SDS011;59683;51.428;-1.994;2024-03-02T19:21:20;13.27;;;7.57;;
66663;SDS011;59683;51.428;-1.994;2024-03-02T19:23:46;16.00;;;8.70;;
66663;SDS011;59683;51.428;-1.994;2024-03-02T19:26:11;17.73;;;9.73;;
66663;SDS011;59683;51.428;-1.994;2024-03-02T19:28:42;15.55;;;9.45;;
66663;SDS011;59683;51.428;-1.994;2024-03-02T19:31:08;14.77;;;8.80;;
66663;SDS011;59683;51.428;-1.994;2024-03-02T19:33:33;14.83;;;7.87;;
66663;SDS011;59683;51.428;-1.994;2024-03-02T19:35:59;12.33;;;7.13;;
66663;SDS011;59683;51.428;-1.994;2024-03-02T19:38:24;12.97;;;7.10;;
66663;SDS011;59683;51.428;-1.994;2024-03-02T19:40:50;19.25;;;9.13;;
66663;SDS011;59683;51.428;-1.994;2024-03-02T19:43:16;19.60;;;9.38;;
66663;SDS011;59683;51.428;-1.994;2024-03-02T19:45:43;17.90;;;9.07;;
66663;SDS011;59683;51.428;-1.994;2024-03-02T19:48:09;16.30;;;9.27;;
66663;SDS011;59683;51.428;-1.994;2024-03-02T19:50:38;17.25;;;8.50;;
66663;SDS011;59683;51.428;-1.994;2024-03-02T19:53:06;17.42;;;7.65;;
66663;SDS011;59683;51.428;-1.994;2024-03-02T19:55:32;23.43;;;8.40;;
66663;SDS011;59683;51.428;-1.994;2024-03-02T19:57:57;16.97;;;8.70;;
66663;SDS011;59683;51.428;-1.994;2024-03-02T20:00:23;24.13;;;8.97;;
66663;SDS011;59683;51.428;-1.994;2024-03-02T20:02:48;21.33;;;8.50;;
66663;SDS011;59683;51.428;-1.994;2024-03-02T20:05:14;21.80;;;8.17;;
66663;SDS011;59683;51.428;-1.994;2024-03-02T20:07:40;20.98;;;9.40;;
66663;SDS011;59683;51.428;-1.994;2024-03-02T20:10:07;41.37;;;17.80;;
66663;SDS011;59683;51.428;-1.994;2024-03-02T20:12:35;40.42;;;21.85;;
66663;SDS011;59683;51.428;-1.994;2024-03-02T20:15:00;33.97;;;16.33;;
66663;SDS011;59683;51.428;-1.994;2024-03-02T20:17:26;28.17;;;14.02;;
66663;SDS011;59683;51.428;-1.994;2024-03-02T20:19:52;25.43;;;12.33;;
66663;SDS011;59683;51.428;-1.994;2024-03-02T20:22:17;21.23;;;12.07;;
66663;SDS011;59683;51.428;-1.994;2024-03-02T20:24:43;23.00;;;12.17;;
66663;SDS011;59683;51.428;-1.994;2024-03-02T20:27:08;28.00;;;13.50;;
66663;SDS011;59683;51.428;-1.994;2024-03-02T20:29:34;26.07;;;13.07;;
66663;SDS011;59683;51.428;-1.994;2024-03-02T20:31:59;26.77;;;15.23;;
66663;SDS011;59683;51.428;-1.994;2024-03-02T20:34:25;31.77;;;15.53;;
66663;SDS011;59683;51.428;-1.994;2024-03-02T20:36:50;35.70;;;14.20;;
66663;SDS011;59683;51.428;-1.994;2024-03-02T20:39:16;34.60;;;15.53;;
66663;SDS011;59683;51.428;-1.994;2024-03-02T20:41:41;34.70;;;17.07;;
66663;SDS011;59683;51.428;-1.994;2024-03-02T20:44:07;58.87;;;29.87;;
66663;SDS011;59683;51.428;-1.994;2024-03-02T20:46:32;50.63;;;24.80;;
66663;SDS011;59683;51.428;-1.994;2024-03-02T20:48:57;39.97;;;16.37;;
66663;SDS011;59683;51.428;-1.994;2024-03-02T20:51:23;33.03;;;13.67;;
66663;SDS011;59683;51.428;-1.994;2024-03-02T20:53:55;30.33;;;11.95;;
66663;SDS011;59683;51.428;-1.994;2024-03-02T20:56:21;29.15;;;12.43;;
66663;SDS011;59683;51.428;-1.994;2024-03-02T20:58:47;25.60;;;11.97;;
66663;SDS011;59683;51.428;-1.994;2024-03-02T21:01:13;23.23;;;11.05;;
66663;SDS011;59683;51.428;-1.994;2024-03-02T21:03:38;23.90;;;10.17;;
66663;SDS011;59683;51.428;-1.994;2024-03-02T21:06:05;29.75;;;13.23;;
66663;SDS011;59683;51.428;-1.994;2024-03-02T21:08:31;43.70;;;16.65;;
66663;SDS011;59683;51.428;-1.994;2024-03-02T21:10:56;44.83;;;19.30;;
66663;SDS011;59683;51.428;-1.994;2024-03-02T21:13:22;40.40;;;18.43;;
66663;SDS011;59683;51.428;-1.994;2024-03-02T21:15:50;38.97;;;19.00;;
66663;SDS011;59683;51.428;-1.994;2024-03-02T21:18:15;37.05;;;16.73;;
66663;SDS011;59683;51.428;-1.994;2024-03-02T21:20:40;33.17;;;13.83;;
66663;SDS011;59683;51.428;-1.994;2024-03-02T21:23:06;40.30;;;17.13;;
66663;SDS011;59683;51.428;-1.994;2024-03-02T21:25:36;29.73;;;14.20;;
66663;SDS011;59683;51.428;-1.994;2024-03-02T21:28:01;32.00;;;14.57;;
66663;SDS011;59683;51.428;-1.994;2024-03-02T21:30:27;42.93;;;14.30;;
66663;SDS011;59683;51.428;-1.994;2024-03-02T21:32:55;38.58;;;17.10;;
66663;SDS011;59683;51.428;-1.994;2024-03-02T21:35:21;34.27;;;16.77;;
66663;SDS011;59683;51.428;-1.994;2024-03-02T21:37:46;35.23;;;13.67;;
66663;SDS011;59683;51.428;-1.994;2024-03-02T21:40:12;32.33;;;12.10;;
